createdAt,value
2019-03-29T00:00:32.136Z,6.72
2019-03-29T00:03:03.763Z,6.05
2019-03-29T00:05:37.158Z,6.40
2019-03-29T00:08:09.080Z,6.60
2019-03-29T00:10:40.180Z,6.15
2019-03-29T00:13:14.433Z,6.12
2019-03-29T00:15:44.054Z,6.25
2019-03-29T00:18:16.028Z,5.92
2019-03-29T00:20:47.312Z,6.78
2019-03-29T00:23:18.324Z,6.87
2019-03-29T00:25:49.268Z,6.97
2019-03-29T00:28:20.229Z,7.22
2019-03-29T00:30:51.419Z,6.60
2019-03-29T00:33:22.280Z,6.65
2019-03-29T00:35:54.386Z,6.40
2019-03-29T00:38:25.812Z,6.10
2019-03-29T00:40:56.835Z,6.78
2019-03-29T00:43:27.746Z,6.40
2019-03-29T00:45:58.628Z,6.47
2019-03-29T00:48:29.694Z,6.62
2019-03-29T00:51:01.492Z,7.35
2019-03-29T00:53:32.623Z,7.33
2019-03-29T00:56:04.170Z,8.08
2019-03-29T00:58:35.394Z,7.70
2019-03-29T01:01:06.382Z,7.15
2019-03-29T01:03:37.483Z,7.35
2019-03-29T01:06:08.572Z,7.10
2019-03-29T01:08:39.936Z,6.58
2019-03-29T01:11:11.251Z,8.00
2019-03-29T01:13:42.265Z,6.30
2019-03-29T01:16:13.388Z,6.37
2019-03-29T01:18:44.628Z,7.22
2019-03-29T01:21:15.682Z,7.58
2019-03-29T01:23:46.611Z,7.50
2019-03-29T01:26:17.827Z,7.62
2019-03-29T01:28:50.178Z,6.92
2019-03-29T01:31:21.167Z,6.60
2019-03-29T01:33:52.209Z,7.55
2019-03-29T01:36:23.558Z,7.33
2019-03-29T01:38:54.499Z,6.65
2019-03-29T01:41:26.906Z,7.17
2019-03-29T01:43:57.995Z,7.35
2019-03-29T01:46:29.252Z,6.35
2019-03-29T01:49:01.045Z,6.70
2019-03-29T01:51:33.891Z,6.45
2019-03-29T01:54:05.019Z,6.78
2019-03-29T01:56:35.976Z,7.50
2019-03-29T01:59:06.912Z,7.83
2019-03-29T02:01:38.133Z,7.25
2019-03-29T02:04:09.443Z,6.87
2019-03-29T02:06:42.768Z,6.50
2019-03-29T02:09:13.833Z,6.87
2019-03-29T02:11:44.968Z,6.65
2019-03-29T02:14:16.315Z,8.08
2019-03-29T02:16:48.471Z,7.05
2019-03-29T02:19:19.856Z,8.23
2019-03-29T02:21:52.305Z,8.05
2019-03-29T02:24:23.297Z,7.33
2019-03-29T02:26:55.948Z,7.30
2019-03-29T02:29:27.249Z,8.33
2019-03-29T02:31:59.760Z,8.18
2019-03-29T02:34:30.985Z,8.20
2019-03-29T02:37:02.720Z,7.37
2019-03-29T02:39:33.921Z,8.15
2019-03-29T02:42:05.165Z,7.78
2019-03-29T02:44:36.224Z,8.40
2019-03-29T02:47:07.267Z,8.30
2019-03-29T02:49:38.270Z,7.45
2019-03-29T02:52:09.281Z,8.23
2019-03-29T02:54:40.755Z,8.23
2019-03-29T02:57:11.722Z,9.80
2019-03-29T02:59:42.791Z,9.28
2019-03-29T03:02:13.715Z,8.70
2019-03-29T03:04:44.850Z,7.97
2019-03-29T03:07:15.740Z,8.58
2019-03-29T03:09:46.971Z,8.65
2019-03-29T03:12:18.136Z,8.30
2019-03-29T03:14:48.978Z,7.22
2019-03-29T03:17:19.925Z,7.83
2019-03-29T03:19:50.792Z,8.15
2019-03-29T03:22:21.904Z,7.30
2019-03-29T03:24:52.861Z,7.37
2019-03-29T03:27:23.790Z,6.62
2019-03-29T03:29:54.755Z,6.83
2019-03-29T03:32:25.827Z,8.15
2019-03-29T03:34:57.892Z,8.80
2019-03-29T03:37:29.011Z,7.55
2019-03-29T03:40:00.133Z,8.05
2019-03-29T03:42:31.423Z,8.30
2019-03-29T03:45:02.211Z,8.08
2019-03-29T03:47:32.993Z,8.35
2019-03-29T03:50:04.225Z,7.50
2019-03-29T03:52:35.027Z,7.65
2019-03-29T03:55:06.283Z,7.83
2019-03-29T03:57:38.590Z,7.45
2019-03-29T04:00:09.931Z,7.53
2019-03-29T04:02:40.825Z,7.22
2019-03-29T04:05:12.705Z,8.68
2019-03-29T04:07:43.507Z,7.33
2019-03-29T04:10:14.305Z,8.08
2019-03-29T04:12:45.379Z,8.15
2019-03-29T04:15:16.871Z,8.55
2019-03-29T04:17:47.599Z,8.88
2019-03-29T04:20:18.328Z,7.90
2019-03-29T04:22:49.137Z,8.15
2019-03-29T04:25:19.895Z,7.83
2019-03-29T04:27:50.695Z,8.55
2019-03-29T04:30:22.097Z,9.18
2019-03-29T04:32:52.905Z,7.65
2019-03-29T04:35:24.393Z,7.78
2019-03-29T04:37:57.559Z,8.18
2019-03-29T04:40:30.145Z,7.42
2019-03-29T04:43:00.935Z,7.45
2019-03-29T04:45:32.025Z,7.80
2019-03-29T04:48:03.143Z,8.50
2019-03-29T04:50:33.924Z,7.03
2019-03-29T04:53:04.730Z,6.70
2019-03-29T04:55:35.535Z,7.10
2019-03-29T04:58:07.378Z,7.15
2019-03-29T05:00:38.532Z,6.53
2019-03-29T05:03:09.460Z,5.75
2019-03-29T05:05:41.753Z,6.42
2019-03-29T05:08:12.540Z,5.62
2019-03-29T05:10:43.340Z,5.50
2019-03-29T05:13:14.592Z,5.90
2019-03-29T05:15:45.394Z,5.83
2019-03-29T05:18:16.483Z,5.85
2019-03-29T05:20:47.349Z,6.47
2019-03-29T05:23:18.106Z,6.00
2019-03-29T05:25:48.810Z,6.80
2019-03-29T05:28:19.536Z,6.95
2019-03-29T05:30:50.524Z,6.10
2019-03-29T05:33:21.407Z,6.20
2019-03-29T05:35:52.300Z,6.25
2019-03-29T05:38:23.053Z,6.10
2019-03-29T05:40:54.188Z,6.42
2019-03-29T05:43:25.259Z,6.65
2019-03-29T05:45:56.027Z,5.28
2019-03-29T05:48:27.084Z,5.37
2019-03-29T05:51:03.906Z,5.85
2019-03-29T05:53:37.848Z,6.15
2019-03-29T05:56:08.563Z,6.35
2019-03-29T05:58:39.624Z,5.78
2019-03-29T06:01:10.395Z,5.47
2019-03-29T06:03:41.283Z,5.33
2019-03-29T06:06:11.977Z,4.85
2019-03-29T06:08:42.715Z,4.40
2019-03-29T06:11:13.701Z,4.80
2019-03-29T06:13:44.424Z,4.80
2019-03-29T06:16:15.210Z,4.17
2019-03-29T06:18:46.040Z,4.00
2019-03-29T06:21:16.751Z,4.08
2019-03-29T06:23:47.643Z,4.85
2019-03-29T06:26:18.375Z,4.40
2019-03-29T06:28:49.246Z,3.87
2019-03-29T06:31:20.023Z,3.35
2019-03-29T06:33:50.736Z,3.72
2019-03-29T06:36:22.312Z,3.17
2019-03-29T06:38:54.594Z,3.85
2019-03-29T06:41:25.388Z,3.45
2019-03-29T06:43:56.143Z,3.12
2019-03-29T06:46:26.928Z,2.77
2019-03-29T06:48:58.815Z,3.08
2019-03-29T06:51:30.135Z,3.30
2019-03-29T06:54:01.335Z,3.27
2019-03-29T06:56:32.066Z,3.87
2019-03-29T06:59:03.059Z,2.85
2019-03-29T07:01:33.831Z,3.10
2019-03-29T07:04:04.634Z,3.25
2019-03-29T07:06:35.491Z,3.22
2019-03-29T07:09:06.964Z,3.85
2019-03-29T07:11:39.609Z,3.35
2019-03-29T07:14:10.376Z,6.55
2019-03-29T07:19:56.626Z,3.05
2019-03-29T07:22:27.490Z,3.25
2019-03-29T07:24:58.567Z,2.90
2019-03-29T07:27:38.754Z,3.65
2019-03-29T07:30:02.308Z,3.45
2019-03-29T07:32:34.419Z,4.50
2019-03-29T07:35:05.439Z,4.28
2019-03-29T07:37:36.549Z,5.00
2019-03-29T07:40:07.733Z,5.70
2019-03-29T07:42:38.700Z,5.08
2019-03-29T07:45:10.546Z,4.45
2019-03-29T07:47:41.587Z,4.53
2019-03-29T07:50:12.859Z,4.65
2019-03-29T07:52:43.937Z,4.95
2019-03-29T07:55:14.842Z,3.92
2019-03-29T07:57:45.582Z,4.05
2019-03-29T08:00:16.724Z,4.90
2019-03-29T08:02:47.581Z,4.67
2019-03-29T08:05:19.407Z,5.33
2019-03-29T08:07:50.095Z,4.53
2019-03-29T08:10:26.153Z,4.55
2019-03-29T08:12:53.376Z,4.95
2019-03-29T08:15:24.745Z,4.10
2019-03-29T08:17:55.451Z,3.15
2019-03-29T08:20:39.265Z,3.37
2019-03-29T08:22:58.901Z,3.35
2019-03-29T08:25:29.708Z,5.15
2019-03-29T08:28:00.484Z,7.05
2019-03-29T08:30:31.639Z,8.10
2019-03-29T08:33:02.490Z,10.58
2019-03-29T08:35:33.254Z,10.78
2019-03-29T08:38:06.217Z,11.05
2019-03-29T08:40:36.517Z,10.93
2019-03-29T08:43:07.270Z,10.63
2019-03-29T08:45:38.208Z,11.45
2019-03-29T08:48:08.931Z,12.18
2019-03-29T08:50:41.292Z,11.50
2019-03-29T08:53:12.204Z,10.55
2019-03-29T08:55:45.986Z,10.90
2019-03-29T08:58:16.140Z,11.00
2019-03-29T09:00:47.070Z,8.95
2019-03-29T09:03:18.047Z,9.00
2019-03-29T09:05:52.020Z,7.92
2019-03-29T09:08:22.860Z,8.10
2019-03-29T09:10:53.648Z,7.87
2019-03-29T09:13:24.396Z,7.15
2019-03-29T09:15:55.775Z,7.08
2019-03-29T09:18:26.840Z,6.78
2019-03-29T09:20:57.643Z,6.62
2019-03-29T09:23:30.314Z,5.80
2019-03-29T09:26:01.508Z,5.47
2019-03-29T09:28:33.036Z,5.45
2019-03-29T09:31:04.170Z,5.53
2019-03-29T09:33:35.137Z,4.67
2019-03-29T09:36:06.135Z,4.95
2019-03-29T09:38:36.856Z,5.67
2019-03-29T09:41:07.680Z,4.83
2019-03-29T09:43:38.435Z,5.03
2019-03-29T09:46:09.564Z,4.87
2019-03-29T09:48:40.339Z,5.42
2019-03-29T09:51:11.362Z,4.92
2019-03-29T09:53:42.360Z,4.12
2019-03-29T09:56:13.814Z,4.35
2019-03-29T09:58:45.181Z,4.25
2019-03-29T10:01:16.336Z,3.72
2019-03-29T10:03:47.515Z,3.60
2019-03-29T10:06:18.237Z,4.47
2019-03-29T10:08:49.358Z,4.03
2019-03-29T10:11:22.022Z,4.40
2019-03-29T10:13:53.503Z,4.25
2019-03-29T10:16:25.907Z,4.50
2019-03-29T10:18:57.007Z,4.83
2019-03-29T10:21:28.014Z,4.08
2019-03-29T10:23:58.764Z,4.95
2019-03-29T10:26:29.616Z,4.58
2019-03-29T10:29:00.389Z,4.67
2019-03-29T10:31:32.901Z,4.67
2019-03-29T10:34:03.998Z,4.97
2019-03-29T10:36:37.386Z,4.70
2019-03-29T10:39:12.708Z,4.60
2019-03-29T10:44:12.997Z,4.30
2019-03-29T10:46:43.804Z,4.17
2019-03-29T10:49:14.688Z,4.50
2019-03-29T10:51:45.823Z,4.40
2019-03-29T10:54:16.539Z,3.90
2019-03-29T10:56:48.941Z,4.05
2019-03-29T10:59:27.234Z,4.58
2019-03-29T11:01:53.190Z,4.35
2019-03-29T11:04:24.194Z,4.75
2019-03-29T11:06:54.971Z,4.83
2019-03-29T11:09:27.043Z,3.98
2019-03-29T11:11:58.046Z,4.45
2019-03-29T11:14:29.679Z,4.70
2019-03-29T11:17:00.431Z,4.95
2019-03-29T11:19:31.974Z,5.92
2019-03-29T11:22:02.784Z,5.37
2019-03-29T11:24:33.592Z,4.40
2019-03-29T11:27:04.573Z,5.08
2019-03-29T11:29:36.349Z,4.97
2019-03-29T11:32:12.375Z,4.42
2019-03-29T11:34:48.411Z,4.50
2019-03-29T11:37:26.399Z,5.60
2019-03-29T11:40:06.554Z,5.47
2019-03-29T11:42:47.105Z,6.33
2019-03-29T11:45:30.263Z,6.60
2019-03-29T11:48:09.363Z,6.30
2019-03-29T11:51:18.621Z,7.03
2019-03-29T11:53:47.036Z,6.78
2019-03-29T11:56:26.639Z,7.55
2019-03-29T11:59:03.393Z,6.25
2019-03-29T12:01:44.549Z,7.72
2019-03-29T12:04:34.564Z,6.08
2019-03-29T12:07:15.898Z,6.85
2019-03-29T12:09:55.577Z,6.00
2019-03-29T12:12:32.023Z,7.35
2019-03-29T12:15:15.141Z,6.80
2019-03-29T12:17:48.984Z,7.55
2019-03-29T12:20:24.403Z,8.23
2019-03-29T12:22:56.726Z,7.13
2019-03-29T12:25:27.723Z,7.53
2019-03-29T12:27:58.453Z,7.28
2019-03-29T12:30:32.204Z,10.95
2019-03-29T12:33:01.861Z,8.25
2019-03-29T12:35:33.087Z,8.60
2019-03-29T12:38:04.283Z,8.33
2019-03-29T12:40:35.305Z,9.43
2019-03-29T12:43:06.427Z,7.80
2019-03-29T12:45:37.391Z,8.18
2019-03-29T12:48:08.253Z,7.85
2019-03-29T12:50:47.370Z,7.78
2019-03-29T12:53:18.218Z,8.53
2019-03-29T12:55:49.155Z,9.43
2019-03-29T12:58:20.252Z,10.63
2019-03-29T13:00:51.293Z,8.93
2019-03-29T13:04:13.081Z,8.08
2019-03-29T13:06:44.185Z,10.32
2019-03-29T13:09:48.318Z,9.30
2019-03-29T13:12:20.335Z,9.93
2019-03-29T13:14:52.446Z,8.40
2019-03-29T13:17:23.273Z,8.05
2019-03-29T13:19:54.223Z,9.05
2019-03-29T13:22:25.228Z,8.40
2019-03-29T13:24:56.079Z,8.35
2019-03-29T13:27:26.939Z,9.13
2019-03-29T13:29:57.732Z,8.85
2019-03-29T13:32:28.653Z,8.08
2019-03-29T13:34:59.780Z,9.93
2019-03-29T13:37:30.652Z,8.65
2019-03-29T13:40:01.588Z,8.98
2019-03-29T13:42:32.459Z,9.65
2019-03-29T13:45:03.247Z,9.08
2019-03-29T13:47:34.387Z,9.58
2019-03-29T13:50:06.239Z,10.18
2019-03-29T13:52:42.611Z,9.25
2019-03-29T13:55:55.725Z,9.78
2019-03-29T13:58:27.195Z,8.68
2019-03-29T14:00:58.050Z,9.78
2019-03-29T14:03:28.783Z,8.73
2019-03-29T14:05:59.628Z,9.25
2019-03-29T14:08:31.426Z,8.88
2019-03-29T14:11:02.579Z,9.55
2019-03-29T14:13:33.497Z,9.28
2019-03-29T14:16:04.423Z,9.35
2019-03-29T14:18:36.003Z,10.05
2019-03-29T14:21:07.239Z,9.33
2019-03-29T14:23:38.550Z,10.23
2019-03-29T14:26:09.350Z,9.70
2019-03-29T14:28:40.163Z,10.05
2019-03-29T14:31:11.204Z,10.15
2019-03-29T14:33:42.123Z,10.38
2019-03-29T14:36:13.023Z,10.88
2019-03-29T14:38:43.955Z,10.20
2019-03-29T14:41:14.841Z,10.38
2019-03-29T14:43:48.326Z,9.33
2019-03-29T14:46:35.003Z,9.73
2019-03-29T14:49:05.968Z,9.83
2019-03-29T14:51:36.979Z,9.85
2019-03-29T14:54:11.451Z,10.48
2019-03-29T15:00:07.995Z,9.20
2019-03-29T15:02:38.984Z,10.75
2019-03-29T15:05:10.319Z,10.00
2019-03-29T15:07:42.967Z,9.38
2019-03-29T15:10:26.448Z,9.50
2019-03-29T15:12:57.433Z,9.95
2019-03-29T15:15:29.387Z,9.60
2019-03-29T15:18:00.235Z,9.30
2019-03-29T15:20:34.857Z,9.18
2019-03-29T15:23:05.780Z,9.63
2019-03-29T15:29:24.293Z,10.23
2019-03-29T15:31:55.256Z,11.12
2019-03-29T15:34:26.123Z,10.75
2019-03-29T15:36:56.911Z,10.30
2019-03-29T15:39:27.656Z,10.20
2019-03-29T15:41:58.780Z,10.63
2019-03-29T15:44:29.682Z,9.68
2019-03-29T15:47:00.528Z,9.98
2019-03-29T15:49:31.330Z,10.88
2019-03-29T15:52:02.425Z,11.00
2019-03-29T15:54:33.448Z,11.40
2019-03-29T15:57:04.531Z,14.33
2019-03-29T15:59:35.554Z,11.15
2019-03-29T16:02:06.565Z,11.05
2019-03-29T16:04:37.440Z,11.75
2019-03-29T16:07:08.316Z,11.57
2019-03-29T16:09:39.183Z,11.18
2019-03-29T16:12:10.225Z,12.00
2019-03-29T16:14:41.137Z,11.90
2019-03-29T16:17:12.331Z,11.95
2019-03-29T16:19:45.048Z,11.12
2019-03-29T16:22:15.877Z,10.70
2019-03-29T16:24:46.807Z,11.85
2019-03-29T16:27:17.549Z,10.75
2019-03-29T16:29:48.404Z,12.05
2019-03-29T16:32:29.833Z,11.00
2019-03-29T16:35:01.956Z,11.95
2019-03-29T16:37:32.771Z,12.28
2019-03-29T16:40:03.787Z,11.48
2019-03-29T16:42:34.570Z,11.35
2019-03-29T16:45:05.848Z,10.98
2019-03-29T16:47:36.759Z,13.08
2019-03-29T16:50:08.256Z,11.60
2019-03-29T16:52:39.109Z,12.03
2019-03-29T16:55:13.640Z,11.80
2019-03-29T16:57:43.711Z,12.45
2019-03-29T17:00:14.947Z,11.60
2019-03-29T17:02:45.898Z,12.18
2019-03-29T17:05:16.959Z,12.63
2019-03-29T17:07:47.952Z,13.13
2019-03-29T17:10:18.881Z,12.58
2019-03-29T17:12:52.042Z,12.15
2019-03-29T17:15:22.282Z,13.18
2019-03-29T17:17:53.246Z,11.93
2019-03-29T17:20:24.022Z,10.93
2019-03-29T17:22:54.956Z,11.55
2019-03-29T17:25:25.735Z,11.57
2019-03-29T17:27:56.516Z,10.45
2019-03-29T17:30:38.184Z,9.13
2019-03-29T17:33:10.566Z,10.90
2019-03-29T17:35:53.064Z,10.25
2019-03-29T17:38:23.970Z,10.63
2019-03-29T17:40:55.031Z,9.50
2019-03-29T17:43:25.810Z,11.35
2019-03-29T17:45:56.678Z,11.40
2019-03-29T17:48:27.484Z,10.60
2019-03-29T17:50:59.373Z,10.68
2019-03-29T17:53:30.244Z,11.35
2019-03-29T17:56:01.159Z,11.57
2019-03-29T17:58:32.187Z,12.18
2019-03-29T18:01:03.026Z,10.63
2019-03-29T18:03:33.926Z,12.05
2019-03-29T18:06:04.943Z,12.30
2019-03-29T18:08:35.884Z,12.33
2019-03-29T18:11:06.867Z,13.38
2019-03-29T18:13:37.631Z,13.65
2019-03-29T18:16:08.605Z,13.40
2019-03-29T18:18:39.412Z,12.50
2019-03-29T18:21:11.239Z,16.32
2019-03-29T18:23:41.989Z,15.28
2019-03-29T18:26:13.041Z,14.10
2019-03-29T18:28:43.915Z,12.43
2019-03-29T18:31:14.920Z,13.22
2019-03-29T18:33:46.308Z,14.33
2019-03-29T18:36:17.319Z,13.98
2019-03-29T18:38:48.936Z,12.75
2019-03-29T18:41:21.305Z,12.40
2019-03-29T18:43:56.624Z,13.48
2019-03-29T18:47:17.111Z,7.92
2019-03-29T18:50:54.832Z,10.98
2019-03-29T18:52:54.567Z,11.80
2019-03-29T18:55:26.355Z,12.88
2019-03-29T18:57:57.715Z,12.47
2019-03-29T19:00:33.183Z,12.78
2019-03-29T19:03:04.432Z,15.58
2019-03-29T19:05:35.876Z,15.65
2019-03-29T19:08:06.752Z,14.00
2019-03-29T19:10:37.512Z,13.08
2019-03-29T19:13:08.631Z,11.97
2019-03-29T19:15:39.390Z,15.60
2019-03-29T19:18:11.171Z,15.43
2019-03-29T19:20:46.849Z,14.30
2019-03-29T19:23:18.404Z,17.37
2019-03-29T19:26:10.786Z,15.58
2019-03-29T19:32:25.479Z,15.63
2019-03-29T19:34:57.799Z,14.65
2019-03-29T19:37:28.708Z,14.87
2019-03-29T19:39:59.677Z,14.53
2019-03-29T19:42:30.667Z,13.55
2019-03-29T19:45:01.589Z,13.58
2019-03-29T19:47:32.836Z,16.25
2019-03-29T19:50:07.552Z,15.00
2019-03-29T19:52:38.878Z,15.45
2019-03-29T19:55:09.931Z,15.32
2019-03-29T19:57:41.028Z,15.30
2019-03-29T20:00:13.127Z,13.93
2019-03-29T20:02:44.123Z,13.85
2019-03-29T20:05:26.324Z,14.00
2019-03-29T20:07:57.534Z,14.10
2019-03-29T20:10:28.317Z,13.88
2019-03-29T20:12:59.213Z,13.18
2019-03-29T20:15:30.211Z,13.53
2019-03-29T20:18:01.260Z,12.78
2019-03-29T20:20:33.689Z,13.83
2019-03-29T20:23:04.724Z,16.37
2019-03-29T20:25:35.836Z,14.45
2019-03-29T20:28:06.876Z,13.80
2019-03-29T20:30:37.631Z,16.77
2019-03-29T20:33:08.426Z,16.97
2019-03-29T20:35:39.508Z,13.68
2019-03-29T20:38:10.347Z,12.78
2019-03-29T20:40:41.223Z,14.60
2019-03-29T20:43:12.035Z,13.60
2019-03-29T20:45:43.394Z,13.18
2019-03-29T20:48:21.599Z,12.43
2019-03-29T20:51:19.776Z,13.22
2019-03-29T20:53:52.732Z,14.07
2019-03-29T20:59:30.248Z,11.95
2019-03-29T21:08:40.835Z,10.78
2019-03-29T21:11:12.084Z,9.78
2019-03-29T21:13:42.863Z,9.75
2019-03-29T21:16:13.723Z,9.80
2019-03-29T21:18:44.424Z,9.73
2019-03-29T21:21:15.157Z,19.75
2019-03-29T21:23:47.380Z,11.30
2019-03-29T21:26:18.360Z,12.45
2019-03-29T21:28:52.628Z,11.48
2019-03-29T21:31:22.314Z,11.90
2019-03-29T21:33:55.567Z,12.43
2019-03-29T21:36:26.352Z,11.83
2019-03-29T21:38:58.916Z,10.60
2019-03-29T21:41:29.720Z,11.20
2019-03-29T21:44:00.419Z,10.03
2019-03-29T21:46:31.213Z,9.88
2019-03-29T21:49:02.266Z,9.05
2019-03-29T21:51:32.976Z,9.10
2019-03-29T21:54:03.803Z,9.03
2019-03-29T21:56:34.603Z,8.88
2019-03-29T21:59:05.487Z,9.18
2019-03-29T22:01:36.202Z,8.25
2019-03-29T22:04:06.932Z,8.80
2019-03-29T22:06:37.644Z,9.90
2019-03-29T22:09:08.643Z,10.70
2019-03-29T22:11:41.151Z,9.65
2019-03-29T22:14:30.781Z,10.43
2019-03-29T22:19:58.491Z,10.88
2019-03-29T22:22:29.441Z,12.43
2019-03-29T22:25:00.251Z,9.83
2019-03-29T22:27:30.997Z,9.78
2019-03-29T22:30:01.735Z,9.43
2019-03-29T22:32:32.507Z,10.25
2019-03-29T22:35:03.523Z,9.68
2019-03-29T22:37:36.444Z,9.70
2019-03-29T22:40:09.947Z,9.80
2019-03-29T22:42:40.882Z,7.62
2019-03-29T22:45:11.969Z,8.58
2019-03-29T22:47:43.763Z,8.45
2019-03-29T22:50:14.699Z,7.70
2019-03-29T22:52:45.538Z,7.45
2019-03-29T22:55:16.364Z,9.30
2019-03-29T22:57:47.265Z,9.98
2019-03-29T23:00:30.111Z,10.90
2019-03-29T23:06:41.975Z,11.35
2019-03-29T23:09:15.340Z,11.05
2019-03-29T23:15:36.979Z,10.38
2019-03-29T23:18:07.940Z,10.58
2019-03-29T23:20:39.647Z,10.80
2019-03-29T23:23:10.420Z,10.82
2019-03-29T23:25:41.185Z,11.30
2019-03-29T23:28:12.623Z,11.18
2019-03-29T23:30:43.840Z,10.40
2019-03-29T23:33:15.993Z,11.15
2019-03-29T23:35:47.189Z,9.85
2019-03-29T23:38:18.227Z,8.78
2019-03-29T23:40:49.408Z,7.80
2019-03-29T23:43:20.815Z,7.97
2019-03-29T23:45:51.797Z,8.78
2019-03-29T23:48:24.593Z,8.03
2019-03-29T23:50:56.324Z,7.55
2019-03-29T23:53:27.435Z,6.62
2019-03-29T23:55:59.343Z,6.83
2019-03-29T23:58:30.214Z,8.08
